createdAt,value
2023-04-10T00:00:34.986Z,0.00
2023-04-10T00:01:35.032Z,0.00
2023-04-10T00:02:35.161Z,0.00
2023-04-10T00:03:35.136Z,0.00
2023-04-10T00:04:35.101Z,0.00
2023-04-10T00:05:35.081Z,0.00
2023-04-10T00:06:35.093Z,0.00
2023-04-10T00:07:35.122Z,0.00
2023-04-10T00:08:35.161Z,0.00
2023-04-10T00:09:35.178Z,0.00
2023-04-10T00:10:35.180Z,0.00
2023-04-10T00:11:35.204Z,0.00
2023-04-10T00:12:35.220Z,0.00
2023-04-10T00:13:35.243Z,0.00
2023-04-10T00:14:35.257Z,0.00
2023-04-10T00:15:35.278Z,0.00
2023-04-10T00:16:35.327Z,0.00
2023-04-10T00:17:35.344Z,0.00
2023-04-10T00:18:35.345Z,0.00
2023-04-10T00:19:35.359Z,0.00
2023-04-10T00:20:35.384Z,0.00
2023-04-10T00:21:35.398Z,0.00
2023-04-10T00:22:35.418Z,0.00
2023-04-10T00:23:35.434Z,0.00
2023-04-10T00:24:35.454Z,0.00
2023-04-10T00:25:35.482Z,0.00
2023-04-10T00:26:35.495Z,0.00
2023-04-10T00:27:35.539Z,0.00
2023-04-10T00:28:35.536Z,0.00
2023-04-10T00:29:35.555Z,0.00
2023-04-10T00:30:35.581Z,0.00
2023-04-10T00:31:35.642Z,0.00
2023-04-10T00:32:35.645Z,0.00
2023-04-10T00:33:35.638Z,0.00
2023-04-10T00:34:35.662Z,0.00
2023-04-10T00:35:35.693Z,0.00
2023-04-10T00:36:35.698Z,0.00
2023-04-10T00:37:35.767Z,0.00
2023-04-10T00:38:35.740Z,0.00
2023-04-10T00:39:35.755Z,0.00
2023-04-10T00:40:35.772Z,0.00
2023-04-10T00:41:35.796Z,0.00
2023-04-10T00:42:35.811Z,0.00
2023-04-10T00:43:35.841Z,0.00
2023-04-10T00:44:35.856Z,0.00
2023-04-10T00:45:35.891Z,0.00
2023-04-10T00:46:36.234Z,0.00
2023-04-10T00:47:35.945Z,0.00
2023-04-10T00:48:35.932Z,0.00
2023-04-10T00:49:35.957Z,0.00
2023-04-10T00:50:36.004Z,0.00
2023-04-10T00:51:36.013Z,0.00
2023-04-10T00:52:36.013Z,0.00
2023-04-10T00:53:36.032Z,0.00
2023-04-10T00:54:36.050Z,0.00
2023-04-10T00:55:36.092Z,0.00
2023-04-10T00:56:36.093Z,0.00
2023-04-10T00:57:36.113Z,0.00
2023-04-10T00:58:36.126Z,0.00
2023-04-10T00:59:36.181Z,0.00
2023-04-10T01:00:36.165Z,0.00
2023-04-10T01:01:36.293Z,0.00
2023-04-10T01:02:36.330Z,0.00
2023-04-10T01:03:36.483Z,0.00
2023-04-10T01:04:36.398Z,0.00
2023-04-10T01:05:36.265Z,0.00
2023-04-10T01:06:36.282Z,0.00
2023-04-10T01:07:36.315Z,0.00
2023-04-10T01:08:36.324Z,0.00
2023-04-10T01:09:36.343Z,0.00
2023-04-10T01:10:36.372Z,0.00
2023-04-10T01:11:36.394Z,0.00
2023-04-10T01:12:36.410Z,0.00
2023-04-10T01:13:36.421Z,0.00
2023-04-10T01:14:36.444Z,0.00
2023-04-10T01:15:36.459Z,0.00
2023-04-10T01:16:36.499Z,0.00
2023-04-10T01:17:36.530Z,0.00
2023-04-10T01:18:36.519Z,0.00
2023-04-10T01:19:36.536Z,0.00
2023-04-10T01:20:36.558Z,0.00
2023-04-10T01:21:36.583Z,0.00
2023-04-10T01:22:36.621Z,0.00
2023-04-10T01:23:36.650Z,0.00
2023-04-10T01:24:36.635Z,0.00
2023-04-10T01:25:36.651Z,0.00
2023-04-10T01:26:36.676Z,0.00
2023-04-10T01:27:36.693Z,0.00
2023-04-10T01:28:36.736Z,0.00
2023-04-10T01:29:36.738Z,0.00
2023-04-10T01:30:36.770Z,0.00
2023-04-10T01:31:36.772Z,0.00
2023-04-10T01:32:36.880Z,0.00
2023-04-10T01:33:36.807Z,0.00
2023-04-10T01:34:36.896Z,0.00
2023-04-10T01:35:36.868Z,0.00
2023-04-10T01:36:36.866Z,0.00
2023-04-10T01:37:36.911Z,0.00
2023-04-10T01:38:36.912Z,0.00
2023-04-10T01:39:36.930Z,0.00
2023-04-10T01:40:36.944Z,0.00
2023-04-10T01:41:36.969Z,0.00
2023-04-10T01:42:36.988Z,0.00
2023-04-10T01:43:37.038Z,0.00
2023-04-10T01:44:37.021Z,0.00
2023-04-10T01:45:37.063Z,0.00
2023-04-10T01:46:37.102Z,0.00
2023-04-10T01:47:37.144Z,0.00
2023-04-10T01:48:37.101Z,0.00
2023-04-10T01:49:37.117Z,0.00
2023-04-10T01:50:37.139Z,0.00
2023-04-10T01:51:44.342Z,0.00
2023-04-10T01:53:41.652Z,0.00
2023-04-10T01:54:41.173Z,0.00
2023-04-10T01:56:45.186Z,0.00
2023-04-10T01:57:45.195Z,0.00
2023-04-10T01:59:49.681Z,0.00
2023-04-10T02:00:49.218Z,0.00
2023-04-10T02:02:42.208Z,0.00
2023-04-10T02:03:42.221Z,0.00
2023-04-10T02:05:46.626Z,0.00
2023-04-10T02:06:46.152Z,0.00
2023-04-10T02:08:50.156Z,0.00
2023-04-10T02:09:50.166Z,0.00
2023-04-10T02:11:54.709Z,0.00
2023-04-10T02:12:54.185Z,0.00
2023-04-10T02:14:58.189Z,0.00
2023-04-10T02:15:58.218Z,0.00
2023-04-10T02:18:02.707Z,0.00
2023-04-10T02:19:02.209Z,0.00
2023-04-10T02:20:02.275Z,0.00
2023-04-10T02:21:02.247Z,0.00
2023-04-10T02:22:02.259Z,0.00
2023-04-10T02:23:02.284Z,0.00
2023-04-10T02:24:02.315Z,0.00
2023-04-10T02:25:02.321Z,0.00
2023-04-10T02:26:02.338Z,0.00
2023-04-10T02:27:02.357Z,0.00
2023-04-10T02:28:02.410Z,0.00
2023-04-10T02:29:02.396Z,0.00
2023-04-10T02:30:02.467Z,0.00
2023-04-10T02:31:02.463Z,0.00
2023-04-10T02:32:02.464Z,0.00
2023-04-10T02:33:02.572Z,0.00
2023-04-10T02:34:02.550Z,0.00
2023-04-10T02:35:02.531Z,0.00
2023-04-10T02:36:02.610Z,0.00
2023-04-10T02:37:02.567Z,0.00
2023-04-10T02:38:02.562Z,0.00
2023-04-10T02:39:02.589Z,0.00
2023-04-10T02:40:02.611Z,0.00
2023-04-10T02:41:02.627Z,0.00
2023-04-10T02:42:02.639Z,0.00
2023-04-10T02:43:02.660Z,0.00
2023-04-10T02:44:02.722Z,0.00
2023-04-10T02:45:02.704Z,0.00
2023-04-10T02:46:02.722Z,0.00
2023-04-10T02:47:02.859Z,0.00
2023-04-10T02:48:02.836Z,0.00
2023-04-10T02:49:02.782Z,0.00
2023-04-10T02:50:02.802Z,0.00
2023-04-10T02:51:02.846Z,0.00
2023-04-10T02:52:02.837Z,0.00
2023-04-10T02:53:02.858Z,0.00
2023-04-10T02:54:02.876Z,0.00
2023-04-10T02:55:02.897Z,0.00
2023-04-10T02:56:02.926Z,0.00
2023-04-10T02:57:02.960Z,0.00
2023-04-10T02:58:02.953Z,0.00
2023-04-10T02:59:02.968Z,0.00
2023-04-10T03:00:02.983Z,0.00
2023-04-10T03:01:03.004Z,0.00
2023-04-10T03:02:03.101Z,0.00
2023-04-10T03:03:03.178Z,0.00
2023-04-10T03:04:03.148Z,0.00
2023-04-10T03:05:03.083Z,0.00
2023-04-10T03:06:03.108Z,0.00
2023-04-10T03:07:03.129Z,0.00
2023-04-10T03:08:03.138Z,0.00
2023-04-10T03:09:03.153Z,0.00
2023-04-10T03:10:03.173Z,0.00
2023-04-10T03:11:03.206Z,0.00
2023-04-10T03:12:03.212Z,0.00
2023-04-10T03:13:03.238Z,0.00
2023-04-10T03:14:03.249Z,0.00
2023-04-10T03:15:03.277Z,0.00
2023-04-10T03:16:03.338Z,0.00
2023-04-10T03:17:03.312Z,0.00
2023-04-10T03:18:03.382Z,0.00
2023-04-10T03:19:03.342Z,0.00
2023-04-10T03:20:03.372Z,0.00
2023-04-10T03:21:03.393Z,0.00
2023-04-10T03:22:03.404Z,0.00
2023-04-10T03:23:03.420Z,0.00
2023-04-10T03:24:03.437Z,0.00
2023-04-10T03:25:03.457Z,0.00
2023-04-10T03:26:03.494Z,0.00
2023-04-10T03:27:03.516Z,0.00
2023-04-10T03:28:03.534Z,0.00
2023-04-10T03:29:03.534Z,0.00
2023-04-10T03:30:03.553Z,0.00
2023-04-10T03:31:03.640Z,0.00
2023-04-10T03:32:03.672Z,0.00
2023-04-10T03:33:03.638Z,0.00
2023-04-10T03:34:03.675Z,0.00
2023-04-10T03:35:03.646Z,0.00
2023-04-10T03:36:03.734Z,0.00
2023-04-10T03:37:03.689Z,0.00
2023-04-10T03:38:03.711Z,0.00
2023-04-10T03:39:03.720Z,0.00
2023-04-10T03:40:03.739Z,0.00
2023-04-10T03:41:03.766Z,0.00
2023-04-10T03:42:03.780Z,0.00
2023-04-10T03:43:03.803Z,0.00
2023-04-10T03:44:03.833Z,0.00
2023-04-10T03:45:03.838Z,0.00
2023-04-10T03:46:03.856Z,0.00
2023-04-10T03:47:03.959Z,0.00
2023-04-10T03:48:03.997Z,0.00
2023-04-10T03:49:03.909Z,0.00
2023-04-10T03:50:03.943Z,0.00
2023-04-10T03:51:03.958Z,0.00
2023-04-10T03:52:03.967Z,0.00
2023-04-10T03:53:03.981Z,0.00
2023-04-10T03:54:04.008Z,0.00
2023-04-10T03:55:04.021Z,0.00
2023-04-10T03:56:04.042Z,0.00
2023-04-10T03:57:04.060Z,0.00
2023-04-10T03:58:04.072Z,0.00
2023-04-10T03:59:04.095Z,0.00
2023-04-10T04:00:04.113Z,0.00
2023-04-10T04:01:04.138Z,0.00
2023-04-10T04:02:04.219Z,0.00
2023-04-10T04:03:04.275Z,0.00
2023-04-10T04:04:04.356Z,0.00
2023-04-10T04:05:04.307Z,0.00
2023-04-10T04:06:04.259Z,0.00
2023-04-10T04:07:04.269Z,0.00
2023-04-10T04:08:04.272Z,0.00
2023-04-10T04:09:04.282Z,4.00
2023-04-10T04:10:04.306Z,4.00
2023-04-10T04:11:04.316Z,0.00
2023-04-10T04:12:04.336Z,0.00
2023-04-10T04:13:04.356Z,4.00
2023-04-10T04:14:04.389Z,4.00
2023-04-10T04:15:04.392Z,4.00
2023-04-10T04:16:04.411Z,8.00
2023-04-10T04:17:04.499Z,4.00
2023-04-10T04:18:04.473Z,4.00
2023-04-10T04:19:04.467Z,8.00
2023-04-10T04:20:04.493Z,8.00
2023-04-10T04:21:04.504Z,12.00
2023-04-10T04:22:04.546Z,12.00
2023-04-10T04:23:04.544Z,16.00
2023-04-10T04:24:04.569Z,20.00
2023-04-10T04:25:04.589Z,24.00
2023-04-10T04:26:04.600Z,24.00
2023-04-10T04:27:04.617Z,32.00
2023-04-10T04:28:04.640Z,32.00
2023-04-10T04:29:04.681Z,40.00
2023-04-10T04:30:04.703Z,48.00
2023-04-10T04:31:04.700Z,52.00
2023-04-10T04:32:04.785Z,60.00
2023-04-10T04:33:04.821Z,72.00
2023-04-10T04:34:04.756Z,84.00
2023-04-10T04:35:04.773Z,92.00
2023-04-10T04:36:04.861Z,104.00
2023-04-10T04:37:04.815Z,116.00
2023-04-10T04:38:04.825Z,132.00
2023-04-10T04:39:04.863Z,152.00
2023-04-10T04:40:04.872Z,172.00
2023-04-10T04:41:04.885Z,192.00
2023-04-10T04:42:04.902Z,216.00
2023-04-10T04:43:04.922Z,236.00
2023-04-10T04:44:04.960Z,252.00
2023-04-10T04:45:04.962Z,264.00
2023-04-10T04:46:04.999Z,288.00
2023-04-10T04:47:05.000Z,312.00
2023-04-10T04:48:05.058Z,340.00
2023-04-10T04:49:05.039Z,368.00
2023-04-10T04:50:05.065Z,404.00
2023-04-10T04:51:05.086Z,436.00
2023-04-10T04:52:05.095Z,480.00
2023-04-10T04:53:06.698Z,528.00
2023-04-10T04:54:05.132Z,576.00
2023-04-10T04:55:05.158Z,628.00
2023-04-10T04:56:05.183Z,680.00
2023-04-10T04:57:05.195Z,736.00
2023-04-10T04:58:05.208Z,788.00
2023-04-10T04:59:05.225Z,844.00
2023-04-10T05:00:05.248Z,892.00
2023-04-10T05:01:05.412Z,944.00
2023-04-10T05:02:05.293Z,1000.00
2023-04-10T05:03:05.392Z,1064.00
2023-04-10T05:04:05.474Z,1128.00
2023-04-10T05:05:05.338Z,1184.00
2023-04-10T05:06:05.358Z,1236.00
2023-04-10T05:07:05.380Z,1292.00
2023-04-10T05:08:05.395Z,1344.00
2023-04-10T05:09:05.425Z,1388.00
2023-04-10T05:10:05.437Z,1432.00
2023-04-10T05:11:05.453Z,1488.00
2023-04-10T05:12:05.470Z,1560.00
2023-04-10T05:13:05.502Z,1636.00
2023-04-10T05:14:05.519Z,1724.00
2023-04-10T05:15:05.528Z,1812.00
2023-04-10T05:16:05.595Z,1900.00
2023-04-10T05:17:05.568Z,1976.00
2023-04-10T05:18:05.753Z,2052.00
2023-04-10T05:19:05.609Z,2124.00
2023-04-10T05:20:05.625Z,2188.00
2023-04-10T05:21:05.647Z,2244.00
2023-04-10T05:22:05.659Z,2292.00
2023-04-10T05:23:05.681Z,2340.00
2023-04-10T05:24:05.701Z,2388.00
2023-04-10T05:25:05.727Z,2440.00
2023-04-10T05:26:05.740Z,2496.00
2023-04-10T05:27:05.761Z,2556.00
2023-04-10T05:28:05.782Z,2596.00
2023-04-10T05:29:05.807Z,2624.00
2023-04-10T05:30:05.814Z,2688.00
2023-04-10T05:31:05.864Z,2796.00
2023-04-10T05:32:05.858Z,2888.00
2023-04-10T05:33:05.873Z,3032.00
2023-04-10T05:34:05.896Z,3072.00
2023-04-10T05:35:05.915Z,3148.00
2023-04-10T05:36:06.000Z,3228.00
2023-04-10T05:37:05.963Z,3364.00
2023-04-10T05:38:05.976Z,3604.00
2023-04-10T05:39:06.002Z,3764.00
2023-04-10T05:40:06.036Z,3832.00
2023-04-10T05:41:06.050Z,3908.00
2023-04-10T05:42:06.059Z,4028.00
2023-04-10T05:43:06.077Z,4212.00
2023-04-10T05:44:06.098Z,4360.00
2023-04-10T05:45:06.124Z,4600.00
2023-04-10T05:46:06.197Z,4960.00
2023-04-10T05:47:06.155Z,5196.00
2023-04-10T05:48:06.249Z,5220.00
2023-04-10T05:49:06.204Z,5200.00
2023-04-10T05:50:06.216Z,5168.00
2023-04-10T05:51:06.241Z,5236.00
2023-04-10T05:52:06.259Z,5476.00
2023-04-10T05:53:06.279Z,5660.00
2023-04-10T05:54:06.303Z,5724.00
2023-04-10T05:55:06.339Z,5828.00
2023-04-10T05:56:06.345Z,6040.00
2023-04-10T05:57:06.360Z,6132.00
2023-04-10T05:58:06.380Z,6112.00
2023-04-10T05:59:06.404Z,6028.00
2023-04-10T06:00:06.424Z,5892.00
2023-04-10T06:01:06.444Z,5836.00
2023-04-10T06:02:06.546Z,5812.00
2023-04-10T06:03:06.532Z,5772.00
2023-04-10T06:04:06.598Z,5716.00
2023-04-10T06:05:06.611Z,5536.00
2023-04-10T06:06:06.552Z,5488.00
2023-04-10T06:07:06.570Z,5488.00
2023-04-10T06:08:06.591Z,5504.00
2023-04-10T06:09:06.613Z,5612.00
2023-04-10T06:10:06.627Z,5752.00
2023-04-10T06:11:06.670Z,5956.00
2023-04-10T06:12:06.674Z,6052.00
2023-04-10T06:13:08.230Z,6124.00
2023-04-10T06:14:06.720Z,6124.00
2023-04-10T06:15:06.740Z,5968.00
2023-04-10T06:16:06.768Z,5904.00
2023-04-10T06:17:06.791Z,5832.00
2023-04-10T06:18:06.805Z,5796.00
2023-04-10T06:19:06.847Z,5684.00
2023-04-10T06:20:06.853Z,5688.00
2023-04-10T06:21:06.876Z,5816.00
2023-04-10T06:22:06.892Z,5840.00
2023-04-10T06:23:06.923Z,5876.00
2023-04-10T06:24:06.934Z,6108.00
2023-04-10T06:25:07.317Z,6508.00
2023-04-10T06:26:06.973Z,6612.00
2023-04-10T06:27:06.996Z,7076.00
2023-04-10T06:28:07.021Z,7452.00
2023-04-10T06:29:07.044Z,7724.00
2023-04-10T06:30:07.073Z,7744.00
2023-04-10T06:31:07.185Z,7600.00
2023-04-10T06:32:07.112Z,7624.00
2023-04-10T06:33:07.140Z,7908.00
2023-04-10T06:34:07.150Z,8656.00
2023-04-10T06:35:07.176Z,9036.00
2023-04-10T06:36:07.212Z,9256.00
2023-04-10T06:37:07.230Z,9628.00
2023-04-10T06:38:07.238Z,10748.00
2023-04-10T06:39:07.513Z,12360.00
2023-04-10T06:40:07.287Z,12864.00
2023-04-10T06:41:07.301Z,13004.00
2023-04-10T06:42:07.322Z,12688.00
2023-04-10T06:43:07.359Z,11048.00
2023-04-10T06:44:07.385Z,10520.00
2023-04-10T06:45:07.389Z,10820.00
2023-04-10T06:46:07.413Z,10776.00
2023-04-10T06:47:07.495Z,11260.00
2023-04-10T06:48:07.490Z,10712.00
2023-04-10T06:49:07.481Z,9680.00
2023-04-10T06:50:07.507Z,7488.00
2023-04-10T06:51:07.621Z,5508.00
2023-04-10T06:52:07.561Z,5020.00
2023-04-10T06:53:07.575Z,4864.00
2023-04-10T06:54:07.589Z,4808.00
2023-04-10T06:55:07.620Z,4752.00
2023-04-10T06:56:07.654Z,4728.00
2023-04-10T06:57:07.662Z,4696.00
2023-04-10T06:58:07.690Z,4684.00
2023-04-10T06:59:07.716Z,4684.00
2023-04-10T07:00:07.731Z,4676.00
2023-04-10T07:01:07.807Z,4652.00
2023-04-10T07:02:07.824Z,4628.00
2023-04-10T07:03:07.857Z,4592.00
2023-04-10T07:04:07.985Z,4564.00
2023-04-10T07:05:07.842Z,4564.00
2023-04-10T07:06:07.866Z,4564.00
2023-04-10T07:07:07.890Z,4548.00
2023-04-10T07:08:07.915Z,4528.00
2023-04-10T07:09:07.936Z,4528.00
2023-04-10T07:10:07.964Z,4540.00
2023-04-10T07:11:07.985Z,4528.00
2023-04-10T07:12:08.012Z,4524.00
2023-04-10T07:13:08.021Z,4512.00
2023-04-10T07:14:08.042Z,4464.00
2023-04-10T07:15:08.076Z,4512.00
2023-04-10T07:16:08.111Z,4484.00
2023-04-10T07:17:08.115Z,4544.00
2023-04-10T07:18:08.157Z,4528.00
2023-04-10T07:19:08.162Z,4504.00
2023-04-10T07:20:08.188Z,4476.00
2023-04-10T07:21:08.204Z,4516.00
2023-04-10T07:22:08.227Z,4492.00
2023-04-10T07:23:08.247Z,4480.00
2023-04-10T07:24:08.270Z,4464.00
2023-04-10T07:25:08.290Z,4448.00
2023-04-10T07:26:08.316Z,4456.00
2023-04-10T07:27:08.342Z,4444.00
2023-04-10T07:28:08.363Z,4440.00
2023-04-10T07:29:08.389Z,4424.00
2023-04-10T07:30:08.415Z,4404.00
2023-04-10T07:31:08.433Z,4400.00
2023-04-10T07:32:08.525Z,4376.00
2023-04-10T07:33:08.599Z,4408.00
2023-04-10T07:34:08.497Z,4416.00
2023-04-10T07:35:08.519Z,4432.00
2023-04-10T07:36:08.615Z,4424.00
2023-04-10T07:37:08.574Z,4424.00
2023-04-10T07:38:08.591Z,4436.00
2023-04-10T07:39:08.613Z,4480.00
2023-04-10T07:40:08.633Z,4476.00
2023-04-10T07:41:08.653Z,4488.00
2023-04-10T07:42:08.677Z,4512.00
2023-04-10T07:43:08.697Z,4512.00
2023-04-10T07:44:08.737Z,4532.00
2023-04-10T07:45:08.747Z,4540.00
2023-04-10T07:46:08.832Z,4556.00
2023-04-10T07:47:08.790Z,4584.00
2023-04-10T07:48:08.837Z,4636.00
2023-04-10T07:49:09.111Z,4728.00
2023-04-10T07:50:08.863Z,4800.00
2023-04-10T07:51:08.885Z,4892.00
2023-04-10T07:52:08.912Z,5040.00
2023-04-10T07:53:08.935Z,5172.00
2023-04-10T07:54:08.952Z,5304.00
2023-04-10T07:55:08.982Z,5448.00
2023-04-10T07:56:09.006Z,5644.00
2023-04-10T07:57:09.040Z,5824.00
2023-04-10T07:58:09.046Z,6016.00
2023-04-10T07:59:09.072Z,6212.00
2023-04-10T08:00:09.102Z,6412.00
2023-04-10T08:01:09.116Z,6600.00
2023-04-10T08:02:09.215Z,6800.00
2023-04-10T08:03:09.340Z,7004.00
2023-04-10T08:04:09.353Z,7200.00
2023-04-10T08:05:09.251Z,7368.00
2023-04-10T08:06:09.240Z,7516.00
2023-04-10T08:07:09.270Z,7624.00
2023-04-10T08:08:09.278Z,7744.00
2023-04-10T08:09:09.306Z,7864.00
2023-04-10T08:10:09.332Z,8004.00
2023-04-10T08:11:09.356Z,8144.00
2023-04-10T08:12:09.375Z,8276.00
2023-04-10T08:13:09.400Z,8432.00
2023-04-10T08:14:09.422Z,8600.00
2023-04-10T08:15:09.451Z,8796.00
2023-04-10T08:16:09.472Z,8972.00
2023-04-10T08:17:09.538Z,9184.00
2023-04-10T08:18:09.520Z,9332.00
2023-04-10T08:19:09.555Z,9420.00
2023-04-10T08:20:09.573Z,9476.00
2023-04-10T08:21:09.595Z,9520.00
2023-04-10T08:22:09.628Z,9564.00
2023-04-10T08:24:09.670Z,9600.00
2023-04-10T08:25:09.695Z,9520.00
2023-04-10T08:26:09.716Z,9416.00
2023-04-10T08:27:09.740Z,9300.00
2023-04-10T08:28:09.765Z,9236.00
2023-04-10T08:29:09.800Z,9200.00
2023-04-10T08:30:09.831Z,9136.00
2023-04-10T08:31:09.904Z,9044.00
2023-04-10T08:32:09.877Z,8960.00
2023-04-10T08:33:09.896Z,8892.00
2023-04-10T08:34:09.922Z,8784.00
2023-04-10T08:35:09.962Z,8716.00
2023-04-10T08:36:10.036Z,8684.00
2023-04-10T08:37:11.361Z,8660.00
2023-04-10T08:38:14.200Z,8740.00
2023-04-10T08:39:10.048Z,8644.00
2023-04-10T08:40:10.085Z,8580.00
2023-04-10T08:41:10.104Z,8664.00
2023-04-10T08:42:10.112Z,8880.00
2023-04-10T08:43:10.146Z,8884.00
2023-04-10T08:44:10.170Z,8884.00
2023-04-10T08:45:10.234Z,8600.00
2023-04-10T08:46:10.238Z,8512.00
2023-04-10T08:47:10.245Z,8568.00
2023-04-10T08:48:10.273Z,8612.00
2023-04-10T08:49:10.297Z,8668.00
2023-04-10T08:50:10.322Z,8756.00
2023-04-10T08:51:15.602Z,8688.00
2023-04-10T08:52:10.372Z,8536.00
2023-04-10T08:53:10.397Z,8356.00
2023-04-10T08:54:10.422Z,8200.00
2023-04-10T08:55:10.449Z,8020.00
2023-04-10T08:56:10.477Z,7852.00
2023-04-10T08:57:11.130Z,7656.00
2023-04-10T08:58:10.525Z,7376.00
2023-04-10T08:59:10.558Z,7244.00
2023-04-10T09:01:10.633Z,6892.00
2023-04-10T09:02:10.719Z,6812.00
2023-04-10T09:03:10.740Z,6680.00
2023-04-10T09:04:10.810Z,6524.00
2023-04-10T09:05:10.707Z,6388.00
2023-04-10T09:06:10.729Z,6148.00
2023-04-10T09:07:10.760Z,5976.00
2023-04-10T09:08:10.795Z,5868.00
2023-04-10T09:09:10.809Z,5784.00
2023-04-10T09:10:10.834Z,5612.00
2023-04-10T09:11:10.864Z,5556.00
2023-04-10T09:12:10.896Z,5556.00
2023-04-10T09:13:10.917Z,5544.00
2023-04-10T09:14:10.935Z,5468.00
2023-04-10T09:15:10.960Z,5408.00
2023-04-10T09:16:11.017Z,5348.00
2023-04-10T09:17:11.069Z,5296.00
2023-04-10T09:18:11.101Z,5192.00
2023-04-10T09:19:11.087Z,5084.00
2023-04-10T09:20:11.088Z,5096.00
2023-04-10T09:21:11.118Z,5084.00
2023-04-10T09:22:11.161Z,5032.00
2023-04-10T09:23:11.164Z,5000.00
2023-04-10T09:24:11.191Z,4916.00
2023-04-10T09:25:11.217Z,4856.00
2023-04-10T09:26:11.241Z,4824.00
2023-04-10T09:27:11.276Z,4828.00
2023-04-10T09:28:11.291Z,4884.00
2023-04-10T09:29:11.321Z,4820.00
2023-04-10T09:30:11.338Z,4768.00
2023-04-10T09:31:11.425Z,4764.00
2023-04-10T09:32:11.395Z,4748.00
2023-04-10T09:33:11.421Z,4704.00
2023-04-10T09:34:11.468Z,4696.00
2023-04-10T09:35:11.478Z,4676.00
2023-04-10T09:36:11.517Z,4620.00
2023-04-10T09:37:11.522Z,4596.00
2023-04-10T09:38:11.548Z,4592.00
2023-04-10T09:39:11.580Z,4512.00
2023-04-10T09:40:11.613Z,4472.00
2023-04-10T09:41:11.625Z,4488.00
2023-04-10T09:42:11.669Z,4480.00
2023-04-10T09:43:11.683Z,4504.00
2023-04-10T09:44:11.700Z,4484.00
2023-04-10T09:45:11.735Z,4504.00
2023-04-10T09:46:11.799Z,4532.00
2023-04-10T09:47:11.781Z,4480.00
2023-04-10T09:48:11.807Z,4496.00
2023-04-10T09:49:11.836Z,4436.00
2023-04-10T09:50:11.856Z,4424.00
2023-04-10T09:51:11.884Z,4380.00
2023-04-10T09:52:11.911Z,4376.00
2023-04-10T09:53:11.937Z,4372.00
2023-04-10T09:54:11.965Z,4396.00
2023-04-10T09:55:12.002Z,4372.00
2023-04-10T09:56:12.013Z,4348.00
2023-04-10T09:57:12.041Z,4344.00
2023-04-10T09:58:12.072Z,4396.00
2023-04-10T09:59:12.093Z,4408.00
2023-04-10T10:00:12.116Z,4396.00
2023-04-10T10:01:12.142Z,4460.00
2023-04-10T10:02:12.228Z,4488.00
2023-04-10T10:03:12.372Z,4508.00
2023-04-10T10:04:12.362Z,4552.00
2023-04-10T10:05:12.404Z,4596.00
2023-04-10T10:06:12.272Z,4736.00
2023-04-10T10:07:12.299Z,4812.00
2023-04-10T10:08:12.354Z,4848.00
2023-04-10T10:09:12.353Z,4988.00
2023-04-10T10:10:12.376Z,5096.00
2023-04-10T10:11:12.411Z,5176.00
2023-04-10T10:12:12.437Z,5384.00
2023-04-10T10:13:12.455Z,5472.00
2023-04-10T10:14:12.492Z,5692.00
2023-04-10T10:15:12.521Z,5896.00
2023-04-10T10:16:12.552Z,6136.00
2023-04-10T10:17:12.557Z,6364.00
2023-04-10T10:18:12.587Z,6596.00
2023-04-10T10:19:12.621Z,6804.00
2023-04-10T10:20:12.647Z,6976.00
2023-04-10T10:21:12.670Z,7168.00
2023-04-10T10:22:12.699Z,7308.00
2023-04-10T10:23:12.726Z,7452.00
2023-04-10T10:24:12.752Z,7628.00
2023-04-10T10:25:12.791Z,7752.00
2023-04-10T10:26:12.808Z,7896.00
2023-04-10T10:27:12.830Z,8040.00
2023-04-10T10:28:12.862Z,8252.00
2023-04-10T10:29:12.886Z,8436.00
2023-04-10T10:30:28.366Z,8592.00
2023-04-10T10:31:13.001Z,8760.00
2023-04-10T10:32:12.965Z,8936.00
2023-04-10T10:33:12.994Z,9120.00
2023-04-10T10:34:13.035Z,9344.00
2023-04-10T10:35:13.049Z,9592.00
2023-04-10T10:36:13.098Z,9804.00
2023-04-10T10:37:13.103Z,10036.00
2023-04-10T10:38:13.129Z,10260.00
2023-04-10T10:39:13.159Z,10536.00
2023-04-10T10:40:13.188Z,10796.00
2023-04-10T10:41:13.222Z,11064.00
2023-04-10T10:42:13.251Z,11300.00
2023-04-10T10:43:13.277Z,11552.00
2023-04-10T10:44:13.333Z,11764.00
2023-04-10T10:45:13.326Z,11980.00
2023-04-10T10:46:13.391Z,12160.00
2023-04-10T10:47:13.395Z,12352.00
2023-04-10T10:48:13.414Z,12532.00
2023-04-10T10:49:13.438Z,12708.00
2023-04-10T10:50:13.471Z,12888.00
2023-04-10T10:51:13.483Z,13076.00
2023-04-10T10:52:13.518Z,13236.00
2023-04-10T10:53:13.544Z,13376.00
2023-04-10T10:54:13.572Z,13464.00
2023-04-10T10:55:13.599Z,13512.00
2023-04-10T10:56:13.628Z,13504.00
2023-04-10T10:57:13.656Z,13444.00
2023-04-10T10:58:13.683Z,13368.00
2023-04-10T10:59:13.714Z,13328.00
2023-04-10T11:00:13.745Z,13284.00
2023-04-10T11:01:13.794Z,13260.00
2023-04-10T11:02:13.860Z,13268.00
2023-04-10T11:03:13.977Z,13300.00
2023-04-10T11:04:13.883Z,13344.00
2023-04-10T11:05:13.882Z,13412.00
2023-04-10T11:06:13.916Z,13492.00
2023-04-10T11:07:13.944Z,13576.00
2023-04-10T11:08:13.973Z,13660.00
2023-04-10T11:09:13.998Z,13720.00
2023-04-10T11:10:14.028Z,13760.00
2023-04-10T11:11:14.055Z,13760.00
2023-04-10T11:12:14.086Z,13732.00
2023-04-10T11:13:14.115Z,13672.00
2023-04-10T11:14:14.144Z,13620.00
2023-04-10T11:15:14.169Z,13552.00
2023-04-10T11:16:14.219Z,13492.00
2023-04-10T11:17:14.229Z,13444.00
2023-04-10T11:18:14.257Z,13384.00
2023-04-10T11:19:15.803Z,13348.00
2023-04-10T11:20:14.395Z,13244.00
2023-04-10T11:21:14.343Z,13080.00
2023-04-10T11:22:14.392Z,12932.00
2023-04-10T11:23:14.405Z,12820.00
2023-04-10T11:24:14.438Z,12764.00
2023-04-10T11:25:14.466Z,12764.00
2023-04-10T11:26:14.501Z,12812.00
2023-04-10T11:27:14.518Z,12872.00
2023-04-10T11:28:14.548Z,12940.00
2023-04-10T11:29:14.589Z,12996.00
2023-04-10T11:30:14.615Z,13044.00
2023-04-10T11:31:14.634Z,13072.00
2023-04-10T11:32:14.792Z,13104.00
2023-04-10T11:33:14.689Z,13132.00
2023-04-10T11:34:14.719Z,13160.00
2023-04-10T11:35:14.754Z,13204.00
2023-04-10T11:36:14.773Z,13252.00
2023-04-10T11:37:14.803Z,13296.00
2023-04-10T11:38:14.843Z,13368.00
2023-04-10T11:39:14.863Z,13444.00
2023-04-10T11:40:14.906Z,13532.00
2023-04-10T11:41:14.918Z,13620.00
2023-04-10T11:42:14.944Z,13696.00
2023-04-10T11:43:15.041Z,13756.00
2023-04-10T11:44:15.003Z,13776.00
2023-04-10T11:45:15.038Z,13732.00
2023-04-10T11:46:15.096Z,13636.00
2023-04-10T11:47:15.092Z,13496.00
2023-04-10T11:48:15.133Z,13336.00
2023-04-10T11:49:15.144Z,13164.00
2023-04-10T11:50:15.183Z,12984.00
2023-04-10T11:51:15.240Z,12840.00
2023-04-10T11:52:15.239Z,12716.00
2023-04-10T11:53:15.265Z,12616.00
2023-04-10T11:54:15.292Z,12524.00
2023-04-10T11:55:15.322Z,12452.00
2023-04-10T11:56:15.353Z,12384.00
2023-04-10T11:57:15.382Z,12340.00
2023-04-10T11:58:15.411Z,12316.00
2023-04-10T11:59:15.439Z,12304.00
2023-04-10T12:00:15.479Z,12292.00
2023-04-10T12:01:15.522Z,12284.00
2023-04-10T12:02:15.671Z,12284.00
2023-04-10T12:03:15.737Z,12308.00
2023-04-10T12:04:15.790Z,12324.00
2023-04-10T12:05:15.724Z,12324.00
2023-04-10T12:06:15.682Z,12248.00
2023-04-10T12:07:15.689Z,12112.00
2023-04-10T12:08:15.705Z,11924.00
2023-04-10T12:09:15.753Z,11696.00
2023-04-10T12:10:15.778Z,11472.00
2023-04-10T12:11:15.792Z,11272.00
2023-04-10T12:12:15.825Z,11092.00
2023-04-10T12:13:15.854Z,10944.00
2023-04-10T12:14:15.879Z,10748.00
2023-04-10T12:15:15.921Z,10528.00
2023-04-10T12:16:16.101Z,10292.00
2023-04-10T12:17:15.964Z,10080.00
2023-04-10T12:18:15.996Z,9924.00
2023-04-10T12:19:16.026Z,9820.00
2023-04-10T12:20:16.067Z,9740.00
2023-04-10T12:21:16.088Z,9676.00
2023-04-10T12:22:16.111Z,9636.00
2023-04-10T12:23:16.144Z,9596.00
2023-04-10T12:24:16.171Z,9576.00
2023-04-10T12:25:16.217Z,9636.00
2023-04-10T12:26:16.251Z,9736.00
2023-04-10T12:27:16.261Z,9880.00
2023-04-10T12:28:16.302Z,10040.00
2023-04-10T12:29:16.318Z,10204.00
2023-04-10T12:30:16.366Z,10352.00
2023-04-10T12:31:16.395Z,10496.00
2023-04-10T12:32:16.427Z,10628.00
2023-04-10T12:33:16.440Z,10776.00
2023-04-10T12:34:16.472Z,10980.00
2023-04-10T12:35:16.511Z,11184.00
2023-04-10T12:36:16.528Z,11364.00
2023-04-10T12:37:16.565Z,11524.00
2023-04-10T12:38:16.594Z,11652.00